Terminal Aerodrome Forecast
Issued by NWS Corpus Christi, TX

Home | Current Version | Previous Version | Text Only | Print | Product List | Glossary On
Versions: 1 2 3 4 5 6 7 8 9 10 11 12 13 14 15 16 17 18 19 20
000
FTUS44 KCRP 071502 AAB
TAFCRP
TAF AMD
KCRP 071502Z 0715/0812 04008KT 6SM BR SCT008 SCT030 BKN050
      TEMPO 0715/0718 4SM -DZ BR OVC008
     FM071800 07007KT P6SM SCT015 BKN025
      TEMPO 0718/0722 6SM -DZ BR BKN015 BKN025
     FM080500 03007KT P6SM VCSH SCT009 BKN015
     FM081000 02014G23KT P6SM VCSH BKN015=

USA.gov is the U.S. government's official web portal to all federal, state and local government web resources and services.